createdAt,value
2019-02-25T00:01:59.146Z,88.30
2019-02-25T00:04:29.774Z,86.33
2019-02-25T00:07:00.314Z,91.70
2019-02-25T00:09:30.779Z,90.47
2019-02-25T00:12:01.334Z,90.87
2019-02-25T00:14:31.783Z,93.63
2019-02-25T00:17:02.424Z,85.33
2019-02-25T00:19:32.941Z,84.83
2019-02-25T00:22:03.573Z,84.40
2019-02-25T00:24:33.962Z,80.80
2019-02-25T00:27:04.500Z,89.70
2019-02-25T00:29:34.876Z,87.83
2019-02-25T00:32:05.541Z,91.87
2019-02-25T00:34:37.070Z,84.10
2019-02-25T00:37:07.618Z,92.87
2019-02-25T00:39:38.125Z,90.67
2019-02-25T00:42:08.592Z,84.00
2019-02-25T00:44:39.194Z,89.80
2019-02-25T00:47:09.694Z,89.17
2019-02-25T00:49:40.322Z,83.27
2019-02-25T00:52:10.790Z,88.13
2019-02-25T00:54:41.380Z,86.13
2019-02-25T00:57:11.916Z,89.53
2019-02-25T00:59:42.421Z,79.70
2019-02-25T01:02:12.874Z,84.00
2019-02-25T01:04:43.470Z,85.37
2019-02-25T01:07:14.092Z,80.40
2019-02-25T01:09:44.754Z,81.47
2019-02-25T01:12:15.480Z,85.17
2019-02-25T01:14:46.081Z,81.23
2019-02-25T01:17:16.560Z,83.50
2019-02-25T01:19:47.025Z,85.27
2019-02-25T01:22:17.702Z,82.07
2019-02-25T01:24:48.340Z,89.20
2019-02-25T01:27:19.075Z,94.13
2019-02-25T01:29:49.601Z,82.67
2019-02-25T01:32:20.120Z,78.10
2019-02-25T01:34:50.583Z,73.30
2019-02-25T01:37:21.078Z,91.40
2019-02-25T01:39:51.523Z,80.50
2019-02-25T01:42:22.083Z,78.27
2019-02-25T01:44:52.608Z,78.47
2019-02-25T01:47:23.211Z,74.73
2019-02-25T01:49:54.227Z,80.27
2019-02-25T01:52:24.672Z,77.30
2019-02-25T01:54:55.322Z,69.47
2019-02-25T01:57:25.874Z,70.70
2019-02-25T01:59:56.370Z,76.33
2019-02-25T02:02:26.864Z,71.53
2019-02-25T02:04:57.340Z,73.33
2019-02-25T02:07:27.843Z,76.00
2019-02-25T02:09:58.375Z,72.87
2019-02-25T02:12:28.790Z,80.70
2019-02-25T02:14:59.346Z,70.83
2019-02-25T02:17:29.760Z,70.70
2019-02-25T02:20:00.445Z,72.53
2019-02-25T02:22:30.874Z,70.23
2019-02-25T02:25:01.954Z,71.10
2019-02-25T02:27:32.500Z,75.60
2019-02-25T02:30:03.018Z,64.07
2019-02-25T02:32:34.961Z,70.10
2019-02-25T02:35:06.062Z,68.67
2019-02-25T02:37:36.651Z,76.53
2019-02-25T02:40:07.931Z,65.03
2019-02-25T02:42:38.493Z,79.07
2019-02-25T02:45:32.273Z,83.10
2019-02-25T02:48:06.264Z,83.73
2019-02-25T02:50:36.743Z,83.40
2019-02-25T02:53:07.364Z,79.17
2019-02-25T02:55:37.910Z,81.23
2019-02-25T02:58:08.494Z,74.73
2019-02-25T03:00:38.939Z,77.77
2019-02-25T03:03:09.342Z,71.37
2019-02-25T03:05:39.792Z,71.47
2019-02-25T03:08:10.221Z,67.53
2019-02-25T03:10:41.163Z,64.43
2019-02-25T03:13:11.613Z,64.00
2019-02-25T03:15:42.432Z,66.80
2019-02-25T03:18:12.954Z,64.97
2019-02-25T03:20:43.492Z,58.80
2019-02-25T03:23:14.002Z,59.30
2019-02-25T03:25:44.507Z,62.80
2019-02-25T03:28:14.994Z,56.90
2019-02-25T03:30:45.458Z,54.90
2019-02-25T03:33:15.939Z,54.67
2019-02-25T03:35:46.660Z,56.97
2019-02-25T03:38:17.142Z,52.13
2019-02-25T03:40:47.616Z,51.10
2019-02-25T03:43:18.206Z,48.67
2019-02-25T03:45:48.773Z,48.47
2019-02-25T03:48:19.404Z,47.90
2019-02-25T03:50:49.947Z,53.00
2019-02-25T03:53:21.690Z,49.87
2019-02-25T03:55:52.286Z,47.13
2019-02-25T03:58:22.948Z,55.83
2019-02-25T04:00:53.703Z,46.40
2019-02-25T04:03:24.261Z,46.27
2019-02-25T04:05:54.877Z,55.13
2019-02-25T04:08:25.442Z,52.43
2019-02-25T04:10:55.931Z,51.63
2019-02-25T04:13:26.431Z,52.57
2019-02-25T04:15:57.066Z,47.77
2019-02-25T04:18:27.694Z,47.63
2019-02-25T04:20:58.143Z,51.57
2019-02-25T04:23:28.640Z,50.97
2019-02-25T04:25:59.091Z,44.47
2019-02-25T04:28:29.504Z,48.50
2019-02-25T04:31:00.048Z,47.30
2019-02-25T04:33:30.459Z,48.30
2019-02-25T04:36:02.127Z,44.00
2019-02-25T04:38:32.499Z,46.93
2019-02-25T04:41:02.957Z,49.97
2019-02-25T04:43:33.460Z,49.17
2019-02-25T04:46:03.941Z,43.73
2019-02-25T04:48:34.460Z,38.27
2019-02-25T04:51:04.984Z,44.70
2019-02-25T04:53:35.454Z,43.23
2019-02-25T04:56:06.205Z,42.73
2019-02-25T04:58:36.784Z,44.77
2019-02-25T05:01:07.304Z,37.87
2019-02-25T05:03:37.845Z,45.97
2019-02-25T05:06:08.432Z,41.27
2019-02-25T05:08:39.591Z,39.53
2019-02-25T05:11:10.094Z,40.03
2019-02-25T05:13:40.772Z,41.83
2019-02-25T05:16:11.466Z,43.17
2019-02-25T05:18:42.034Z,42.43
2019-02-25T05:21:12.875Z,41.83
2019-02-25T05:23:44.044Z,41.80
2019-02-25T05:26:17.636Z,49.13
2019-02-25T05:28:48.271Z,46.53
2019-02-25T05:31:18.922Z,45.40
2019-02-25T05:33:49.572Z,44.83
2019-02-25T05:36:20.108Z,48.20
2019-02-25T05:38:50.761Z,47.17
2019-02-25T05:41:21.411Z,47.00
2019-02-25T05:43:51.879Z,50.80
2019-02-25T05:46:22.526Z,53.67
2019-02-25T05:48:53.091Z,43.70
2019-02-25T05:51:23.524Z,46.10
2019-02-25T05:53:54.007Z,41.50
2019-02-25T05:56:24.575Z,50.07
2019-02-25T05:58:55.146Z,54.87
2019-02-25T06:01:25.621Z,49.47
2019-02-25T06:03:56.258Z,45.53
2019-02-25T06:06:26.906Z,56.17
2019-02-25T06:08:57.494Z,48.00
2019-02-25T06:11:28.158Z,48.87
2019-02-25T06:13:58.900Z,46.90
2019-02-25T06:16:29.727Z,53.00
2019-02-25T06:19:00.256Z,53.17
2019-02-25T06:21:30.756Z,56.67
2019-02-25T06:24:01.417Z,46.87
2019-02-25T06:26:32.140Z,53.27
2019-02-25T06:29:02.866Z,52.07
2019-02-25T06:31:33.276Z,53.83
2019-02-25T06:34:03.939Z,54.00
2019-02-25T06:36:34.520Z,54.77
2019-02-25T06:39:06.994Z,51.03
2019-02-25T06:41:37.524Z,50.63
2019-02-25T06:44:08.206Z,56.20
2019-02-25T06:46:39.064Z,53.77
2019-02-25T06:49:09.712Z,55.77
2019-02-25T06:51:40.513Z,51.47
2019-02-25T06:54:11.053Z,46.97
2019-02-25T06:56:41.733Z,52.10
2019-02-25T06:59:12.329Z,58.93
2019-02-25T07:01:42.928Z,49.43
2019-02-25T07:04:29.038Z,52.30
2019-02-25T07:07:18.690Z,47.20
2019-02-25T07:10:08.492Z,52.50
2019-02-25T07:12:51.404Z,56.97
2019-02-25T07:15:41.062Z,44.17
2019-02-25T07:18:30.659Z,71.00
2019-02-25T07:21:20.190Z,51.27
2019-02-25T07:23:56.975Z,53.33
2019-02-25T07:26:46.653Z,49.40
2019-02-25T07:29:36.136Z,84.27
2019-02-25T07:32:25.827Z,56.80
2019-02-25T07:35:15.498Z,53.70
2019-02-25T07:38:05.103Z,52.60
2019-02-25T07:40:53.317Z,43.13
2019-02-25T07:43:31.959Z,47.37
2019-02-25T07:46:21.607Z,52.53
2019-02-25T07:49:06.084Z,46.47
2019-02-25T07:51:45.408Z,51.67
2019-02-25T07:54:35.069Z,39.87
2019-02-25T07:57:24.734Z,52.53
2019-02-25T08:00:14.326Z,57.70
2019-02-25T08:03:04.456Z,56.93
2019-02-25T08:05:50.891Z,64.83
2019-02-25T08:08:29.827Z,63.27
2019-02-25T08:11:21.806Z,61.30
2019-02-25T08:14:11.394Z,55.00
2019-02-25T08:16:55.189Z,66.10
2019-02-25T08:19:44.917Z,51.50
2019-02-25T08:22:34.602Z,43.73
2019-02-25T08:25:19.575Z,55.63
2019-02-25T08:28:00.774Z,54.97
2019-02-25T08:30:47.324Z,54.40
2019-02-25T08:33:34.784Z,56.80
2019-02-25T08:37:02.909Z,54.10
2019-02-25T08:39:39.958Z,52.83
2019-02-25T08:42:19.763Z,81.23
2019-02-25T08:44:55.399Z,51.17
2019-02-25T08:47:30.204Z,54.53
2019-02-25T08:50:04.254Z,57.73
2019-02-25T08:52:34.834Z,54.70
2019-02-25T08:55:06.936Z,52.33
2019-02-25T08:57:37.676Z,47.53
2019-02-25T09:00:11.149Z,78.67
2019-02-25T09:02:41.645Z,68.77
2019-02-25T09:05:14.003Z,49.53
2019-02-25T09:07:44.613Z,56.70
2019-02-25T09:10:15.225Z,74.37
2019-02-25T09:12:45.605Z,60.07
2019-02-25T09:15:16.237Z,55.53
2019-02-25T09:17:45.855Z,49.57
2019-02-25T09:20:16.663Z,54.30
2019-02-25T09:22:47.068Z,48.40
2019-02-25T09:25:17.754Z,51.97
2019-02-25T09:27:48.177Z,54.70
2019-02-25T09:30:18.741Z,56.73
2019-02-25T09:32:49.456Z,59.63
2019-02-25T09:35:20.058Z,104.33
2019-02-25T09:37:50.624Z,50.30
2019-02-25T09:40:21.250Z,78.83
2019-02-25T09:42:51.922Z,52.00
2019-02-25T09:45:22.439Z,55.10
2019-02-25T09:47:52.984Z,144.20
2019-02-25T09:50:23.636Z,52.50
2019-02-25T09:52:57.673Z,60.37
2019-02-25T09:55:28.166Z,51.03
2019-02-25T09:57:58.676Z,55.43
2019-02-25T10:00:29.484Z,56.97
2019-02-25T10:02:59.999Z,52.00
2019-02-25T10:05:30.583Z,45.73
2019-02-25T10:08:01.069Z,47.80
2019-02-25T10:10:31.736Z,49.50
2019-02-25T10:13:02.346Z,56.43
2019-02-25T10:15:32.988Z,28.57
2019-02-25T10:18:03.478Z,46.07
2019-02-25T10:20:33.979Z,54.83
2019-02-25T10:23:04.558Z,52.23
2019-02-25T10:25:35.108Z,48.10
2019-02-25T10:28:05.788Z,51.23
2019-02-25T10:30:36.431Z,47.20
2019-02-25T10:33:07.062Z,45.77
2019-02-25T10:35:37.474Z,51.67
2019-02-25T10:38:07.956Z,51.87
2019-02-25T10:40:38.392Z,49.13
2019-02-25T10:43:08.975Z,53.17
2019-02-25T10:45:41.174Z,53.07
2019-02-25T10:48:11.903Z,45.83
2019-02-25T10:50:42.486Z,47.67
2019-02-25T10:53:13.694Z,54.27
2019-02-25T10:55:53.026Z,47.67
2019-02-25T10:58:25.285Z,58.20
2019-02-25T11:00:56.087Z,52.93
2019-02-25T11:03:26.708Z,42.40
2019-02-25T11:05:58.576Z,39.63
2019-02-25T11:08:29.941Z,42.63
2019-02-25T11:11:04.800Z,48.37
2019-02-25T11:13:36.705Z,46.00
2019-02-25T11:16:07.637Z,50.20
2019-02-25T11:18:40.524Z,53.17
2019-02-25T11:21:11.264Z,43.87
2019-02-25T11:23:43.442Z,48.70
2019-02-25T11:26:14.198Z,54.37
2019-02-25T11:28:44.673Z,40.93
2019-02-25T11:31:17.490Z,55.27
2019-02-25T11:33:47.832Z,51.90
2019-02-25T11:36:20.120Z,52.43
2019-02-25T11:38:50.952Z,52.60
2019-02-25T11:41:21.589Z,50.27
2019-02-25T11:43:52.939Z,49.80
2019-02-25T11:46:24.420Z,52.87
2019-02-25T11:48:54.996Z,51.60
2019-02-25T11:51:27.216Z,52.97
2019-02-25T11:53:59.467Z,49.70
2019-02-25T11:56:31.176Z,54.67
2019-02-25T11:59:02.020Z,55.77
2019-02-25T12:01:32.587Z,56.47
2019-02-25T12:04:03.228Z,48.37
2019-02-25T12:06:33.906Z,52.97
2019-02-25T12:09:05.549Z,54.53
2019-02-25T12:11:36.124Z,44.30
2019-02-25T12:14:06.682Z,50.03
2019-02-25T12:16:37.203Z,53.80
2019-02-25T12:19:07.800Z,57.53
2019-02-25T12:21:38.213Z,52.97
2019-02-25T12:24:08.704Z,58.40
2019-02-25T12:26:39.196Z,49.50
2019-02-25T12:29:11.031Z,51.77
2019-02-25T12:31:41.750Z,51.73
2019-02-25T12:34:12.374Z,55.07
2019-02-25T12:36:42.857Z,59.43
2019-02-25T12:39:13.562Z,54.90
2019-02-25T12:41:44.086Z,56.00
2019-02-25T12:44:14.694Z,57.57
2019-02-25T12:46:45.218Z,64.57
2019-02-25T12:49:15.908Z,57.80
2019-02-25T12:51:46.414Z,61.90
2019-02-25T12:54:17.018Z,56.47
2019-02-25T12:56:47.597Z,62.63
2019-02-25T12:59:18.084Z,181.23
2019-02-25T13:01:48.517Z,62.73
2019-02-25T13:04:18.947Z,56.40
2019-02-25T13:06:49.435Z,56.83
2019-02-25T13:09:20.131Z,60.10
2019-02-25T13:11:50.719Z,62.90
2019-02-25T13:14:21.390Z,63.73
2019-02-25T13:16:51.987Z,65.83
2019-02-25T13:19:22.542Z,66.17
2019-02-25T13:21:53.119Z,80.07
2019-02-25T13:24:23.907Z,66.93
2019-02-25T13:26:54.586Z,65.27
2019-02-25T13:29:25.154Z,60.10
2019-02-25T13:31:55.696Z,58.10
2019-02-25T13:34:27.400Z,61.30
2019-02-25T13:36:58.099Z,66.23
2019-02-25T13:39:28.840Z,67.03
2019-02-25T13:41:59.478Z,64.57
2019-02-25T13:44:30.126Z,61.50
2019-02-25T13:47:00.781Z,69.53
2019-02-25T13:49:31.302Z,72.97
2019-02-25T13:52:01.991Z,61.47
2019-02-25T13:54:32.864Z,66.80
2019-02-25T13:57:04.318Z,67.67
2019-02-25T13:59:34.914Z,65.27
2019-02-25T14:02:05.751Z,69.83
2019-02-25T14:04:36.423Z,64.97
2019-02-25T14:07:07.623Z,65.17
2019-02-25T14:09:38.573Z,65.93
2019-02-25T14:12:09.527Z,30.93
2019-02-25T14:14:40.333Z,65.13
2019-02-25T14:17:10.996Z,62.43
2019-02-25T14:19:41.741Z,31.83
2019-02-25T14:22:14.835Z,60.93
2019-02-25T14:24:45.505Z,68.20
2019-02-25T14:27:16.275Z,40.13
2019-02-25T14:29:48.778Z,87.43
2019-02-25T14:32:19.160Z,55.60
2019-02-25T14:34:50.037Z,69.73
2019-02-25T14:37:22.191Z,83.17
2019-02-25T14:39:54.349Z,75.93
2019-02-25T14:42:25.985Z,91.77
2019-02-25T14:44:58.607Z,90.90
2019-02-25T14:47:36.454Z,94.67
2019-02-25T14:50:02.480Z,88.27
2019-02-25T14:52:33.257Z,97.13
2019-02-25T14:55:06.557Z,92.60
2019-02-25T14:57:38.148Z,98.87
2019-02-25T15:00:11.825Z,98.97
2019-02-25T15:02:45.919Z,108.60
2019-02-25T15:05:17.303Z,113.07
2019-02-25T15:07:49.510Z,122.90
2019-02-25T15:10:21.290Z,116.87
2019-02-25T15:12:56.605Z,89.83
2019-02-25T15:15:25.583Z,109.77
2019-02-25T15:17:56.386Z,95.73
2019-02-25T15:20:28.921Z,111.77
2019-02-25T15:22:59.852Z,116.73
2019-02-25T15:25:33.115Z,121.20
2019-02-25T15:28:02.858Z,99.60
2019-02-25T15:30:33.722Z,93.13
2019-02-25T15:33:04.507Z,99.93
2019-02-25T15:35:37.100Z,102.67
2019-02-25T15:38:07.720Z,88.80
2019-02-25T15:40:38.461Z,91.17
2019-02-25T15:43:15.182Z,111.53
2019-02-25T15:45:44.239Z,108.27
2019-02-25T15:48:16.908Z,95.67
2019-02-25T15:50:50.690Z,108.23
2019-02-25T15:53:22.243Z,107.20
2019-02-25T15:55:53.043Z,109.63
2019-02-25T15:58:23.776Z,157.60
2019-02-25T16:00:54.403Z,118.43
2019-02-25T16:03:25.751Z,107.80
2019-02-25T16:05:59.321Z,112.67
2019-02-25T16:08:30.753Z,126.03
2019-02-25T16:11:01.220Z,128.77
2019-02-25T16:13:32.539Z,127.07
2019-02-25T16:16:04.065Z,145.50
2019-02-25T16:18:34.996Z,102.30
2019-02-25T16:21:06.023Z,116.77
2019-02-25T16:23:40.740Z,141.97
2019-02-25T16:26:11.110Z,149.33
2019-02-25T16:28:42.035Z,134.40
2019-02-25T16:31:14.678Z,153.97
2019-02-25T16:33:46.975Z,152.07
2019-02-25T16:36:17.699Z,140.57
2019-02-25T16:38:51.261Z,151.47
2019-02-25T16:41:27.232Z,163.87
2019-02-25T16:43:53.252Z,144.57
2019-02-25T16:46:24.125Z,151.43
2019-02-25T16:48:55.467Z,150.30
2019-02-25T16:51:28.135Z,140.17
2019-02-25T16:53:59.653Z,164.53
2019-02-25T16:56:30.711Z,171.27
2019-02-25T16:59:10.389Z,147.33
2019-02-25T17:01:34.986Z,131.53
2019-02-25T17:04:06.174Z,141.53
2019-02-25T17:06:37.073Z,190.23
2019-02-25T17:09:09.787Z,185.97
2019-02-25T17:11:42.271Z,169.03
2019-02-25T17:14:14.901Z,161.70
2019-02-25T17:16:45.930Z,169.27
2019-02-25T17:19:16.743Z,175.57
2019-02-25T17:21:47.740Z,186.70
2019-02-25T17:24:18.579Z,164.43
2019-02-25T17:26:49.412Z,220.30
2019-02-25T17:29:20.226Z,98.80
2019-02-25T17:31:52.729Z,199.63
2019-02-25T17:34:23.481Z,181.17
2019-02-25T17:36:54.708Z,212.57
2019-02-25T17:39:25.756Z,215.73
2019-02-25T17:41:57.289Z,209.13
2019-02-25T17:44:30.067Z,214.57
2019-02-25T17:47:02.153Z,225.07
2019-02-25T17:49:35.733Z,261.83
2019-02-25T17:52:06.524Z,203.03
2019-02-25T17:54:37.818Z,212.30
2019-02-25T17:57:11.500Z,211.47
2019-02-25T17:59:44.008Z,211.17
2019-02-25T18:02:15.924Z,197.10
2019-02-25T18:04:47.482Z,230.33
2019-02-25T18:07:19.032Z,250.60
2019-02-25T18:09:49.741Z,192.53
2019-02-25T18:12:20.328Z,200.77
2019-02-25T18:14:51.255Z,204.23
2019-02-25T18:17:23.325Z,94.57
2019-02-25T18:19:55.101Z,205.07
2019-02-25T18:22:27.169Z,203.03
2019-02-25T18:25:04.210Z,195.97
2019-02-25T18:27:37.043Z,195.93
2019-02-25T18:30:09.085Z,197.60
2019-02-25T18:32:41.306Z,201.63
2019-02-25T18:35:14.213Z,195.47
2019-02-25T18:37:45.550Z,199.93
2019-02-25T18:40:19.041Z,197.20
2019-02-25T18:42:50.086Z,210.40
2019-02-25T18:45:21.395Z,212.37
2019-02-25T18:47:52.542Z,200.40
2019-02-25T18:50:24.152Z,181.53
2019-02-25T18:52:57.378Z,199.83
2019-02-25T18:55:31.547Z,189.93
2019-02-25T18:58:02.247Z,209.17
2019-02-25T19:00:34.535Z,199.87
2019-02-25T19:03:08.826Z,195.77
2019-02-25T19:05:39.636Z,212.90
2019-02-25T19:08:17.173Z,223.37
2019-02-25T19:10:51.127Z,230.90
2019-02-25T19:13:23.281Z,221.50
2019-02-25T19:15:54.864Z,207.63
2019-02-25T19:18:29.472Z,238.87
2019-02-25T19:21:01.880Z,231.63
2019-02-25T19:23:36.951Z,245.13
2019-02-25T19:26:09.498Z,251.10
2019-02-25T19:28:44.064Z,221.90
2019-02-25T19:31:13.042Z,226.00
2019-02-25T19:33:43.933Z,230.67
2019-02-25T19:36:14.573Z,236.97
2019-02-25T19:38:45.862Z,225.37
2019-02-25T19:41:20.032Z,242.70
2019-02-25T19:43:58.994Z,231.27
2019-02-25T19:46:23.260Z,237.20
2019-02-25T19:48:56.301Z,214.00
2019-02-25T19:51:28.028Z,215.73
2019-02-25T19:54:02.687Z,204.17
2019-02-25T19:56:32.443Z,166.97
2019-02-25T19:59:05.494Z,182.23
2019-02-25T20:01:36.373Z,214.63
2019-02-25T20:04:09.163Z,206.17
2019-02-25T20:06:39.612Z,208.23
2019-02-25T20:09:12.665Z,204.80
2019-02-25T20:11:45.187Z,215.70
2019-02-25T20:14:19.619Z,202.17
2019-02-25T20:16:50.018Z,192.17
2019-02-25T20:19:20.828Z,220.93
2019-02-25T20:21:52.584Z,252.03
2019-02-25T20:24:25.522Z,236.90
2019-02-25T20:26:59.715Z,197.40
2019-02-25T20:29:28.586Z,185.57
2019-02-25T20:31:59.115Z,187.23
2019-02-25T20:34:31.987Z,197.13
2019-02-25T20:37:05.979Z,223.07
2019-02-25T20:39:38.670Z,199.13
2019-02-25T20:42:09.091Z,221.53
2019-02-25T20:44:39.840Z,208.77
2019-02-25T20:47:10.534Z,208.90
2019-02-25T20:49:42.320Z,160.47
2019-02-25T20:52:13.484Z,215.63
2019-02-25T20:54:48.015Z,237.67
2019-02-25T20:57:18.668Z,212.40
2019-02-25T20:59:51.062Z,232.37
2019-02-25T21:02:25.273Z,231.33
2019-02-25T21:04:58.235Z,224.50
2019-02-25T21:07:29.700Z,212.93
2019-02-25T21:10:03.394Z,236.73
2019-02-25T21:12:33.964Z,250.70
2019-02-25T21:15:05.333Z,234.47
2019-02-25T21:17:37.769Z,235.70
2019-02-25T21:20:11.000Z,242.73
2019-02-25T21:22:44.432Z,227.70
2019-02-25T21:25:16.025Z,241.50
2019-02-25T21:27:46.562Z,222.13
2019-02-25T21:30:17.265Z,225.87
2019-02-25T21:32:49.647Z,204.67
2019-02-25T21:35:23.530Z,230.60
2019-02-25T21:37:54.472Z,222.60
2019-02-25T21:40:27.073Z,235.93
2019-02-25T21:42:57.082Z,210.67
2019-02-25T21:45:30.201Z,211.00
2019-02-25T21:48:01.988Z,203.17
2019-02-25T21:50:34.056Z,208.10
2019-02-25T21:53:05.400Z,194.27
2019-02-25T21:55:36.902Z,199.30
2019-02-25T21:58:07.523Z,191.77
2019-02-25T22:00:40.748Z,219.90
2019-02-25T22:03:12.762Z,217.13
2019-02-25T22:05:42.701Z,225.10
2019-02-25T22:08:13.434Z,209.93
2019-02-25T22:10:45.706Z,205.63
2019-02-25T22:13:18.350Z,199.70
2019-02-25T22:15:48.407Z,193.10
2019-02-25T22:18:18.904Z,205.77
2019-02-25T22:20:52.435Z,192.47
2019-02-25T22:23:24.339Z,215.90
2019-02-25T22:25:55.029Z,216.63
2019-02-25T22:28:25.545Z,218.83
2019-02-25T22:30:56.150Z,213.07
2019-02-25T22:33:28.020Z,202.07
2019-02-25T22:35:58.976Z,190.30
2019-02-25T22:38:29.486Z,189.10
2019-02-25T22:41:02.150Z,186.07
2019-02-25T22:43:32.101Z,206.60
2019-02-25T22:46:04.758Z,137.07
2019-02-25T22:48:35.828Z,191.20
2019-02-25T22:51:07.292Z,204.70
2019-02-25T22:53:37.759Z,215.90
2019-02-25T22:56:11.396Z,195.73
2019-02-25T22:58:42.493Z,190.63
2019-02-25T23:01:17.772Z,191.13
2019-02-25T23:03:50.538Z,211.13
2019-02-25T23:06:23.168Z,216.37
2019-02-25T23:08:54.032Z,213.80
2019-02-25T23:11:26.138Z,197.00
2019-02-25T23:13:56.802Z,196.77
2019-02-25T23:16:27.356Z,186.07
2019-02-25T23:18:57.770Z,199.33
2019-02-25T23:21:30.841Z,188.97
2019-02-25T23:24:02.677Z,200.97
2019-02-25T23:26:32.740Z,216.37
2019-02-25T23:29:04.896Z,216.80
2019-02-25T23:31:35.579Z,231.27
2019-02-25T23:34:10.039Z,226.70
2019-02-25T23:36:43.022Z,226.93
2019-02-25T23:39:10.992Z,233.73
2019-02-25T23:41:43.797Z,221.03
2019-02-25T23:44:15.134Z,226.63
2019-02-25T23:46:46.983Z,203.83
2019-02-25T23:49:26.845Z,204.60
2019-02-25T23:51:50.628Z,201.70
2019-02-25T23:54:23.073Z,216.07
2019-02-25T23:56:55.087Z,186.83
2019-02-25T23:59:26.572Z,176.00
